• Join FlightAware (Why Join?)
  • Login
  • US Flag 
01:45AM EDT


 

Airport Tracker/Info


-or-


 

Live Flight TrackerFlight Track Log ✈ SWA3408 ✈ 22-Jun-2013 ✈ KSJC - KLAS

Flight Track Log - Related Links

Times and Time Zones

All times are in EDT time to prevent confusion due to time zone crossing. See the SWA3408 flight status page for this flight to view local times or setup timezone preferences in your user account.

Time Position Orientation Groundspeed Altitude Reporting Facility
EDT Latitude Longitude Course Direction KTS MPH feet Rate Location/Type
05:21AM 37.3883 -121.9583 101° East 187 215 1,800  Level Oakland Center
05:22AM 37.4308 -121.9461 13° North 212 244 5,200 2,040 Climbing Oakland Center
05:23AM 37.4147 -121.8711 105° East 225 259 5,900 600 Climbing Oakland Center
05:24AM 37.3956 -121.7881 106° East 239 275 6,500 2,220 Climbing Oakland Center
05:25AM 37.3697 -121.6886 108° East 293 337 10,400 3,120 Climbing Oakland Center
05:26AM 37.2804 -121.4157 101° East  Level Estimated
05:26AM 37.3350 -121.5472 107° East 360 414 12,800  Level Oakland Center
05:27AM 37.2994 -121.4075 108° East 410 472 16,100 3,120 Climbing Oakland Center
05:28AM 37.2625 -121.2611 108° East 434 499 19,100 2,760 Climbing Oakland Center
05:29AM 37.2231 -121.1081 108° East 457 526 21,700 2,460 Climbing Oakland Center
05:30AM 37.1819 -120.9492 108° East 476 548 24,100 2,280 Climbing Oakland Center
05:31AM 37.1447 -120.7833 106° East 489 563 26,400 2,400 Climbing Oakland Center
05:32AM 37.1175 -120.6125 101° East 499 574 29,000 2,460 Climbing Oakland Center
05:33AM 37.0878 -120.4411 102° East 502 578 31,400 1,980 Climbing Oakland Center
05:34AM 37.0581 -120.2739 103° East 497 572 33,000 720 Climbing Oakland Center
05:35AM 37.0325 -120.1250 102° East 500 575 32,900 -60 Descending Oakland Center
05:36AM 37.0022 -119.9536 102° East 504 580 32,900  Level Oakland Center
05:37AM 36.9706 -119.7831 103° East 504 580 32,900  Level Oakland Center
05:39AM 36.9086 -119.4392 103° East 507 583 32,900  Level Oakland Center
05:40AM 36.8761 -119.2675 103° East 508 585 32,900  Level Oakland Center
05:41AM 36.8453 -119.0950 103° East 510 587 32,900  Level Oakland Center
05:42AM 36.8117 -118.9231 104° East 511 588 32,900  Level Oakland Center
05:43AM 36.7808 -118.7494 102° East 513 590 32,900  Level Oakland Center
05:44AM 36.7486 -118.5769 103° East 512 589 32,900  Level Oakland Center
05:45AM 36.7106 -118.3761 103° East 511 588 33,000  Climbing Oakland Center
05:46AM 36.6750 -118.2014 104° East 518 596 33,000  Level Oakland Center
05:47AM 36.6425 -118.0308 103° East 513 590 33,000  Level Oakland Center
05:48AM 36.6108 -117.8747 104° East 511 588 33,000  Level Los Angeles Center
05:49AM 36.5772 -117.7033 104° East 510 587 33,000  Level Los Angeles Center
05:50AM 36.5428 -117.5361 104° East 503 579 33,000  Level Los Angeles Center
05:51AM 36.5097 -117.3650 103° East 507 583 33,000  Level Los Angeles Center
05:52AM 36.4744 -117.1958 104° East 507 583 33,000  Level Los Angeles Center
05:53AM 36.4400 -117.0250 104° East 508 585 33,000 -780 Level Los Angeles Center
05:54AM 36.4044 -116.8553 105° East 508 585 31,500 -2,100 Descending Los Angeles Center
05:55AM 36.3700 -116.6914 105° East 498 573 28,900 -2,580 Descending Los Angeles Center
05:56AM 36.3367 -116.5303 104° East 488 562 26,300 -2,580 Descending Los Angeles Center
05:57AM 36.3033 -116.3739 105° East 477 549 23,800 -2,700 Descending Los Angeles Center
05:58AM 36.2656 -116.1958 105° East 467 537 21,000 -2,640 Descending Los Angeles Center
05:59AM 36.2453 -116.1056 106° East 473 544 19,500 -2,640 Descending Los Angeles Center
05:59AM 36.2153 -115.9717 105° East 441 507 17,000 -1,860 Descending Los Angeles Center
06:00AM 36.1808 -115.8389 108° East 398 458 16,000 -1,560 Descending Los Angeles Center
06:01AM 36.1383 -115.7092 112° Southeast 384 442 13,900 -2,220 Descending Los Angeles Center
06:02AM 36.1008 -115.5936 112° Southeast 362 417 11,600 -1,440 Descending Los Angeles Center
06:03AM 36.0672 -115.4875 111° Southeast 328 377 11,000 -360 Descending Los Angeles Center
06:05AM 36.1019 -115.4178 58° Northeast 261 300 10,900 -900 Descending Los Angeles Center
06:06AM 36.1447 -115.3558 49° Northeast 230 265 9,300 -1,740 Descending Los Angeles Center
06:06AM 36.1678 -115.2925 66° East 225 259 7,600 -1,980 Descending Los Angeles Center
06:07AM 36.1758 -115.2542 75° East 230 265 6,500 -1,860 Descending Los Angeles Center
06:08AM 36.1856 -115.1794 81° East 226 260 4,800 -1,500 Descending Los Angeles Center
06:08AM 36.1908 -115.1489 78° East 195 224 4,300 -1,020 Descending Los Angeles Center
06:09AM 36.1908 -115.1206 90° East 206 237 3,800 -840 Descending Los Angeles Center
06:09AM 36.1686 -115.1164 171° South 161 185 3,500 -660 Descending Los Angeles Center
06:10AM 36.1339 -115.1358 204° Southwest 134 154 2,800 -660 Descending Los Angeles Center
06:12AM 36.0864 -115.1631 205° Southwest 136 157 2,000 -540 Descending Los Angeles Center
06:14AM 36.0801 -115.1523 96° East  Level Estimated